Time;durP1;ratioP1;P1;durP2;ratioP2;P2;SDS_P1;SDS_P2;PMS_P1;PMS_P2;Temp;Humidity;BMP_temperature;BMP_pressure;BME280_temperature;BME280_humidity;BME280_pressure;Samples;Min_cycle;Max_cycle;Signal;HPM_P1;HPM_P2
2022/07/28 00:01:54;;;;;;;;;;;19.20;99.90;;;;;;5070403;28;20308;-74
2022/07/28 00:04:19;;;;;;;;;;;19.20;99.90;;;;;;5070276;28;20051;-75
2022/07/28 00:06:45;;;;;;;;;;;19.30;99.90;;;;;;5070360;28;19992;-75
2022/07/28 00:09:10;;;;;;;;;;;19.10;99.90;;;;;;5070278;28;19955;-75
2022/07/28 00:11:36;;;;;;;;;;;19.20;99.90;;;;;;5070360;28;19951;-75
2022/07/28 00:14:01;;;;;;;;;;;19.20;99.90;;;;;;5070373;28;19951;-75
2022/07/28 00:16:27;;;;;;;;;;;19.20;99.90;;;;;;5070299;28;20278;-75
2022/07/28 00:18:52;;;;;;;;;;;19.20;99.90;;;;;;5069060;28;19925;-75
2022/07/28 00:21:18;;;;;;;;;;;19.20;99.90;;;;;;5070293;28;19909;-75
2022/07/28 00:23:43;;;;;;;;;;;19.10;99.90;;;;;;5070548;28;19920;-74
2022/07/28 00:26:10;;;;;;;;;;;19.20;99.90;;;;;;5070160;28;19931;-74
2022/07/28 00:28:36;;;;;;;;;;;19.20;99.90;;;;;;5070607;28;19963;-75
2022/07/28 00:31:01;;;;;;;;;;;19.30;99.90;;;;;;5070115;28;20332;-74
2022/07/28 00:33:27;;;;;;;;;;;19.20;99.90;;;;;;5070379;28;19924;-75
2022/07/28 00:35:52;;;;;;;;;;;19.10;99.90;;;;;;5068544;28;19912;-75
2022/07/28 00:38:18;;;;;;;;;;;19.00;99.90;;;;;;5069692;28;19977;-76
2022/07/28 00:43:28;;;;;;;;;;;19.00;99.90;;;;;;5070552;28;19947;-75
2022/07/28 00:45:53;;;;;;;;;;;18.90;99.90;;;;;;5069801;28;19912;-75
2022/07/28 00:48:19;;;;;;;;;;;19.00;99.90;;;;;;5070182;28;19916;-76
2022/07/28 00:50:44;;;;;;;;;;;19.10;99.90;;;;;;5073205;28;19962;-76
2022/07/28 00:53:10;;;;;;;;;;;19.00;99.90;;;;;;5072357;28;19917;-75
2022/07/28 00:55:37;;;;;;;;;;;18.80;99.90;;;;;;5073649;28;19909;-75
2022/07/28 00:58:02;;;;;;;;;;;18.90;99.90;;;;;;5073632;28;19931;-75
2022/07/28 01:00:28;;;;;;;;;;;18.80;99.90;;;;;;5071923;28;19913;-75
2022/07/28 01:02:53;;;;;;;;;;;18.80;99.90;;;;;;5073584;28;19916;-75
2022/07/28 01:05:19;;;;;;;;;;;18.80;99.90;;;;;;5071767;28;19913;-74
2022/07/28 01:07:49;;;;;;;;;;;18.70;99.90;;;;;;5073355;28;19922;-75
2022/07/28 01:10:17;;;;;;;;;;;18.70;99.90;;;;;;5073024;28;19991;-74
2022/07/28 01:12:51;;;;;;;;;;;18.70;99.90;;;;;;5073333;28;20556;-75
2022/07/28 01:15:20;;;;;;;;;;;18.60;99.90;;;;;;5073066;28;20009;-75
2022/07/28 01:17:48;;;;;;;;;;;18.50;99.90;;;;;;5073230;28;19920;-74
2022/07/28 01:20:22;;;;;;;;;;;18.50;99.90;;;;;;5072989;28;19939;-75
2022/07/28 01:23:00;;;;;;;;;;;18.50;99.90;;;;;;5073334;28;19926;-75
2022/07/28 01:25:38;;;;;;;;;;;18.50;99.90;;;;;;5071558;28;19912;-76
2022/07/28 01:28:10;;;;;;;;;;;18.50;99.90;;;;;;5071673;28;20159;-75
2022/07/28 01:30:40;;;;;;;;;;;18.50;99.90;;;;;;5072967;28;20356;-76
2022/07/28 01:33:13;;;;;;;;;;;18.40;99.90;;;;;;5073151;28;19920;-74
2022/07/28 01:35:45;;;;;;;;;;;18.40;99.90;;;;;;5072707;28;19955;-74
2022/07/28 01:38:11;;;;;;;;;;;18.40;99.90;;;;;;5072725;28;19924;-75
2022/07/28 01:40:39;;;;;;;;;;;18.40;99.90;;;;;;5072672;28;19916;-74
2022/07/28 01:43:06;;;;;;;;;;;18.40;99.90;;;;;;5072914;28;20344;-75
2022/07/28 01:45:33;;;;;;;;;;;18.30;99.90;;;;;;5072411;28;20319;-75
2022/07/28 01:47:59;;;;;;;;;;;18.30;99.90;;;;;;5072820;28;19999;-75
2022/07/28 01:50:26;;;;;;;;;;;18.30;99.90;;;;;;5072489;28;19908;-75
2022/07/28 01:52:52;;;;;;;;;;;18.30;99.90;;;;;;5071170;28;20003;-75
2022/07/28 01:55:19;;;;;;;;;;;18.40;99.90;;;;;;5072294;28;20312;-75
2022/07/28 01:57:45;;;;;;;;;;;18.30;99.90;;;;;;5070980;28;20395;-75
2022/07/28 02:00:12;;;;;;;;;;;18.30;99.90;;;;;;5071875;28;19908;-75
2022/07/28 02:02:39;;;;;;;;;;;18.30;99.90;;;;;;5072426;28;20280;-75
2022/07/28 02:05:04;;;;;;;;;;;18.30;99.90;;;;;;5072013;28;19913;-75
2022/07/28 02:07:31;;;;;;;;;;;18.30;99.90;;;;;;5071917;28;19927;-75
2022/07/28 02:09:57;;;;;;;;;;;18.40;99.90;;;;;;5072105;28;19908;-75
2022/07/28 02:12:23;;;;;;;;;;;18.30;99.90;;;;;;5072250;28;19917;-75
2022/07/28 02:14:49;;;;;;;;;;;18.40;99.90;;;;;;5070803;28;19908;-75
2022/07/28 02:17:16;;;;;;;;;;;18.30;99.90;;;;;;5072002;28;19916;-75
2022/07/28 02:19:43;;;;;;;;;;;18.40;99.90;;;;;;5071992;28;19916;-75
2022/07/28 02:22:10;;;;;;;;;;;18.40;99.90;;;;;;5070467;28;19916;-75
2022/07/28 02:24:36;;;;;;;;;;;18.40;99.90;;;;;;5071749;28;19953;-76
2022/07/28 02:27:10;;;;;;;;;;;18.50;99.90;;;;;;5071789;28;19927;-75
2022/07/28 02:29:40;;;;;;;;;;;18.40;99.90;;;;;;5071745;28;19947;-75
2022/07/28 02:32:28;;;;;;;;;;;18.40;99.90;;;;;;5071718;28;19923;-75
2022/07/28 02:34:57;;;;;;;;;;;18.40;99.90;;;;;;5071690;28;19923;-75
2022/07/28 02:37:22;;;;;;;;;;;18.30;99.90;;;;;;5071742;28;19947;-74
2022/07/28 02:39:52;;;;;;;;;;;18.30;99.90;;;;;;5071454;28;19921;-75
2022/07/28 02:42:18;;;;;;;;;;;18.40;99.90;;;;;;5070146;28;20442;-75
2022/07/28 02:44:51;;;;;;;;;;;18.40;99.90;;;;;;5070097;28;20334;-75
2022/07/28 02:47:17;;;;;;;;;;;18.50;99.90;;;;;;5069841;28;19916;-75
2022/07/28 02:49:43;;;;;;;;;;;18.50;99.90;;;;;;5071403;28;19913;-76
2022/07/28 02:52:10;;;;;;;;;;;18.40;99.90;;;;;;5071482;28;19916;-76
2022/07/28 02:54:36;;;;;;;;;;;18.40;99.90;;;;;;5071354;28;20003;-74
2022/07/28 02:57:03;;;;;;;;;;;18.40;99.90;;;;;;5071128;28;20026;-74
2022/07/28 02:59:30;;;;;;;;;;;18.40;99.90;;;;;;5071238;28;19909;-75
2022/07/28 03:01:56;;;;;;;;;;;18.40;99.90;;;;;;5071250;28;19951;-75
2022/07/28 03:07:07;;;;;;;;;;;18.40;99.90;;;;;;5071491;28;19973;-75
2022/07/28 03:09:37;;;;;;;;;;;18.40;99.90;;;;;;5069439;28;20299;-75
2022/07/28 03:12:02;;;;;;;;;;;18.40;99.90;;;;;;5068696;28;19916;-74
2022/07/28 03:14:28;;;;;;;;;;;18.30;99.90;;;;;;5070834;28;20281;-74
2022/07/28 03:16:53;;;;;;;;;;;18.30;99.90;;;;;;5069219;28;20365;-74
2022/07/28 03:19:19;;;;;;;;;;;18.30;99.90;;;;;;5070793;28;19955;-74
2022/07/28 03:21:48;;;;;;;;;;;18.20;99.90;;;;;;5070601;28;19912;-75
2022/07/28 03:24:15;;;;;;;;;;;18.20;99.90;;;;;;5070688;28;19916;-74
2022/07/28 03:26:45;;;;;;;;;;;18.10;99.90;;;;;;5070657;28;20128;-75
2022/07/28 03:29:11;;;;;;;;;;;18.10;99.90;;;;;;5069202;28;20127;-75
2022/07/28 03:31:39;;;;;;;;;;;18.10;99.90;;;;;;5070548;28;20017;-75
2022/07/28 03:34:04;;;;;;;;;;;18.10;99.90;;;;;;5069173;28;19912;-75
2022/07/28 03:36:35;;;;;;;;;;;18.10;99.90;;;;;;5070576;28;19920;-74
2022/07/28 03:39:01;;;;;;;;;;;18.10;99.90;;;;;;5070231;28;19936;-75
2022/07/28 03:41:28;;;;;;;;;;;18.10;99.90;;;;;;5069191;28;20137;-75
2022/07/28 03:43:54;;;;;;;;;;;17.30;99.90;;;;;;5070719;28;19932;-75
2022/07/28 03:46:20;;;;;;;;;;;18.20;99.90;;;;;;5070489;28;19913;-74
2022/07/28 03:48:46;;;;;;;;;;;18.20;99.90;;;;;;5069158;28;19917;-75
2022/07/28 03:51:11;;;;;;;;;;;18.30;99.90;;;;;;5069162;28;20396;-75
2022/07/28 03:53:37;;;;;;;;;;;18.30;99.90;;;;;;5070742;28;19926;-75
2022/07/28 03:56:03;;;;;;;;;;;18.30;99.90;;;;;;5068996;28;19912;-74
2022/07/28 03:58:29;;;;;;;;;;;18.30;99.90;;;;;;5069074;28;19995;-75
2022/07/28 04:00:55;;;;;;;;;;;18.50;99.90;;;;;;5070404;28;20356;-74
2022/07/28 04:03:20;;;;;;;;;;;18.40;99.90;;;;;;5068799;28;19920;-75
2022/07/28 04:05:46;;;;;;;;;;;18.50;99.90;;;;;;5068798;28;19962;-75
2022/07/28 04:08:12;;;;;;;;;;;18.50;99.90;;;;;;5070142;28;20307;-75
2022/07/28 04:10:38;;;;;;;;;;;18.60;99.90;;;;;;5070588;28;19921;-75
2022/07/28 04:13:03;;;;;;;;;;;18.60;99.90;;;;;;5070243;28;19912;-75
2022/07/28 04:15:30;;;;;;;;;;;18.70;99.90;;;;;;5070514;28;20272;-75
2022/07/28 04:17:56;;;;;;;;;;;18.70;99.90;;;;;;5070076;28;20003;-75
2022/07/28 04:20:23;;;;;;;;;;;18.70;99.90;;;;;;5070502;28;19924;-75
2022/07/28 04:22:49;;;;;;;;;;;18.80;99.90;;;;;;5070492;28;19939;-75
2022/07/28 04:25:18;;;;;;;;;;;18.80;99.90;;;;;;5074193;28;20011;-75
2022/07/28 04:27:44;;;;;;;;;;;18.80;99.90;;;;;;5074559;28;20001;-75
2022/07/28 04:30:16;;;;;;;;;;;18.80;99.90;;;;;;5073839;28;20393;-75
2022/07/28 04:32:42;;;;;;;;;;;18.90;99.90;;;;;;5074066;28;19915;-75
2022/07/28 04:35:08;;;;;;;;;;;18.90;99.90;;;;;;5072596;28;19928;-74
2022/07/28 04:37:34;;;;;;;;;;;19.00;99.90;;;;;;5073636;28;19916;-74
2022/07/28 04:39:59;;;;;;;;;;;18.90;99.90;;;;;;5073489;28;19932;-74
2022/07/28 04:42:24;;;;;;;;;;;19.00;99.90;;;;;;5073785;28;19909;-74
2022/07/28 04:44:50;;;;;;;;;;;19.10;99.90;;;;;;5072729;28;20333;-75
2022/07/28 04:47:16;;;;;;;;;;;19.00;99.90;;;;;;5073622;28;20007;-75
2022/07/28 04:49:41;;;;;;;;;;;19.10;99.90;;;;;;5073609;28;20300;-74
2022/07/28 04:52:07;;;;;;;;;;;19.10;99.90;;;;;;5072137;28;20283;-75
2022/07/28 04:54:33;;;;;;;;;;;19.00;99.90;;;;;;5073666;28;20223;-75
2022/07/28 04:56:58;;;;;;;;;;;19.20;99.90;;;;;;5073293;28;20167;-75
2022/07/28 04:59:24;;;;;;;;;;;19.10;99.90;;;;;;5073450;28;20363;-75
2022/07/28 05:01:49;;;;;;;;;;;19.20;99.90;;;;;;5073374;28;19999;-75
2022/07/28 05:04:15;;;;;;;;;;;19.20;99.90;;;;;;5073239;28;19920;-74
2022/07/28 05:06:40;;;;;;;;;;;19.30;99.90;;;;;;5073165;28;19947;-75
2022/07/28 05:09:06;;;;;;;;;;;19.30;99.90;;;;;;5073171;28;20357;-75
2022/07/28 05:11:31;;;;;;;;;;;19.30;99.90;;;;;;5073503;28;19958;-74
2022/07/28 05:13:57;;;;;;;;;;;19.30;99.90;;;;;;5073105;28;19923;-75
2022/07/28 05:16:22;;;;;;;;;;;19.40;99.90;;;;;;5073270;28;19908;-75
2022/07/28 05:18:48;;;;;;;;;;;19.40;99.90;;;;;;5071481;28;19908;-75
2022/07/28 05:21:13;;;;;;;;;;;19.40;99.90;;;;;;5072910;28;19919;-75
2022/07/28 05:23:39;;;;;;;;;;;19.50;99.90;;;;;;5072735;28;19908;-74
2022/07/28 05:26:05;;;;;;;;;;;19.50;99.90;;;;;;5073121;28;19908;-74
2022/07/28 05:28:31;;;;;;;;;;;19.60;99.90;;;;;;5072849;28;19913;-75
2022/07/28 05:30:57;;;;;;;;;;;19.70;99.90;;;;;;5072692;28;19916;-74
2022/07/28 05:33:23;;;;;;;;;;;19.70;99.90;;;;;;5072845;28;19908;-74
2022/07/28 05:35:50;;;;;;;;;;;19.80;99.90;;;;;;5072522;28;19916;-74
2022/07/28 05:38:16;;;;;;;;;;;19.80;99.90;;;;;;5072712;28;20426;-74
2022/07/28 05:40:41;;;;;;;;;;;19.90;99.90;;;;;;5072233;28;19978;-74
2022/07/28 05:43:07;;;;;;;;;;;20.00;99.90;;;;;;5072652;28;19939;-74
2022/07/28 05:45:33;;;;;;;;;;;20.10;99.90;;;;;;5072709;28;20070;-75
2022/07/28 05:47:58;;;;;;;;;;;20.10;99.90;;;;;;5072591;28;20466;-75
2022/07/28 05:50:24;;;;;;;;;;;20.20;99.90;;;;;;5072817;28;19917;-75
2022/07/28 05:52:50;;;;;;;;;;;20.20;99.90;;;;;;5071338;28;20269;-75
2022/07/28 05:55:16;;;;;;;;;;;20.20;99.90;;;;;;5071697;28;20026;-75
2022/07/28 05:57:42;;;;;;;;;;;20.30;99.90;;;;;;5072505;28;20442;-76
2022/07/28 06:00:09;;;;;;;;;;;20.30;99.90;;;;;;5070951;28;19978;-74
2022/07/28 06:02:34;;;;;;;;;;;20.30;99.90;;;;;;5072441;28;19909;-74
2022/07/28 06:05:00;;;;;;;;;;;20.30;99.90;;;;;;5072456;28;20011;-74
2022/07/28 06:07:25;;;;;;;;;;;20.30;99.90;;;;;;5071093;28;19916;-74
2022/07/28 06:09:51;;;;;;;;;;;20.30;99.90;;;;;;5070861;28;20360;-74
2022/07/28 06:12:16;;;;;;;;;;;20.30;99.90;;;;;;5070701;28;19909;-74
2022/07/28 06:14:42;;;;;;;;;;;20.30;99.90;;;;;;5072104;28;20300;-74
2022/07/28 06:17:07;;;;;;;;;;;20.30;99.90;;;;;;5072013;28;19974;-76
2022/07/28 06:19:33;;;;;;;;;;;20.40;99.90;;;;;;5071887;28;20015;-74
2022/07/28 06:21:58;;;;;;;;;;;20.30;99.90;;;;;;5071631;28;19909;-74
2022/07/28 06:24:24;;;;;;;;;;;20.40;99.90;;;;;;5071531;28;20019;-73
2022/07/28 06:26:50;;;;;;;;;;;20.30;99.90;;;;;;5071814;28;20002;-75
2022/07/28 06:29:15;;;;;;;;;;;20.40;99.90;;;;;;5070268;28;19923;-75
2022/07/28 06:31:41;;;;;;;;;;;20.40;99.90;;;;;;5071855;28;19958;-74
2022/07/28 06:34:06;;;;;;;;;;;20.40;99.90;;;;;;5071730;28;19917;-74
2022/07/28 06:36:32;;;;;;;;;;;20.50;99.90;;;;;;5071376;28;20003;-74
2022/07/28 06:38:57;;;;;;;;;;;20.50;99.90;;;;;;5071336;28;19925;-75
2022/07/28 06:41:23;;;;;;;;;;;20.50;99.90;;;;;;5071299;28;20429;-75
2022/07/28 06:43:50;;;;;;;;;;;20.60;99.90;;;;;;5072028;28;20016;-75
2022/07/28 06:46:18;;;;;;;;;;;20.70;99.90;;;;;;5070589;28;20431;-75
2022/07/28 06:48:44;;;;;;;;;;;20.80;99.90;;;;;;5069656;28;19912;-75
2022/07/28 06:51:10;;;;;;;;;;;20.80;99.90;;;;;;5071601;28;19908;-74
2022/07/28 06:53:36;;;;;;;;;;;20.90;99.90;;;;;;5071130;28;19920;-75
2022/07/28 06:56:02;;;;;;;;;;;20.90;99.90;;;;;;5071098;28;19912;-75
2022/07/28 06:58:28;;;;;;;;;;;21.00;99.90;;;;;;5071351;28;19908;-75
2022/07/28 07:00:53;;;;;;;;;;;21.00;99.90;;;;;;5071426;28;19943;-75
2022/07/28 07:03:19;;;;;;;;;;;21.10;99.90;;;;;;5071357;28;19908;-75
2022/07/28 07:05:44;;;;;;;;;;;21.20;99.90;;;;;;5071237;28;19931;-74
2022/07/28 07:08:10;;;;;;;;;;;21.20;99.90;;;;;;5071221;28;20414;-74
2022/07/28 07:10:35;;;;;;;;;;;21.20;99.90;;;;;;5071270;28;20008;-74
2022/07/28 07:13:01;;;;;;;;;;;21.30;99.90;;;;;;5069509;28;19909;-75
2022/07/28 07:15:26;;;;;;;;;;;21.30;99.90;;;;;;5071162;28;20304;-67
2022/07/28 07:17:53;;;;;;;;;;;21.40;99.90;;;;;;5072902;28;19963;-66
2022/07/28 07:20:18;;;;;;;;;;;21.50;99.90;;;;;;5082494;28;19921;-66
2022/07/28 07:22:44;;;;;;;;;;;21.50;99.90;;;;;;5079683;28;19919;-66
2022/07/28 07:25:11;;;;;;;;;;;21.60;99.90;;;;;;5080445;28;19927;-66
2022/07/28 07:27:36;;;;;;;;;;;21.70;99.90;;;;;;5079931;28;19915;-66
2022/07/28 07:30:03;;;;;;;;;;;21.80;99.90;;;;;;5082241;28;19916;-66
2022/07/28 07:32:29;;;;;;;;;;;21.80;99.90;;;;;;5081119;28;20336;-67
2022/07/28 07:34:54;;;;;;;;;;;21.80;99.90;;;;;;5080335;28;19989;-68
2022/07/28 07:37:20;;;;;;;;;;;21.90;99.90;;;;;;5078818;28;20360;-66
2022/07/28 07:39:45;;;;;;;;;;;22.00;99.90;;;;;;5081223;28;19971;-66
2022/07/28 07:42:11;;;;;;;;;;;22.10;99.90;;;;;;5079814;28;19981;-66
2022/07/28 07:44:36;;;;;;;;;;;22.20;99.90;;;;;;5080017;28;19924;-66
2022/07/28 07:47:02;;;;;;;;;;;22.20;99.90;;;;;;5079587;28;20395;-66
2022/07/28 07:49:28;;;;;;;;;;;22.30;99.90;;;;;;5080904;28;19955;-66
2022/07/28 07:51:53;;;;;;;;;;;22.40;99.90;;;;;;5079691;28;19955;-66
2022/07/28 07:54:20;;;;;;;;;;;22.40;99.90;;;;;;5079277;28;20299;-66
2022/07/28 07:56:46;;;;;;;;;;;22.50;99.90;;;;;;5081438;28;19915;-66
2022/07/28 07:59:11;;;;;;;;;;;22.60;99.90;;;;;;5090241;28;20296;-66
2022/07/28 08:01:37;;;;;;;;;;;22.60;99.90;;;;;;5076361;28;20062;-68
2022/07/28 08:04:02;;;;;;;;;;;22.80;99.90;;;;;;5069162;28;20364;-68
2022/07/28 08:06:28;;;;;;;;;;;22.80;99.90;;;;;;5069125;28;19912;-67
2022/07/28 08:08:54;;;;;;;;;;;22.90;99.90;;;;;;5069060;28;19917;-66
2022/07/28 08:11:19;;;;;;;;;;;23.10;99.90;;;;;;5069372;28;19935;-66
2022/07/28 08:13:45;;;;;;;;;;;23.20;99.90;;;;;;5069106;28;19912;-66
2022/07/28 08:16:10;;;;;;;;;;;23.30;99.90;;;;;;5069032;28;19913;-67
2022/07/28 08:18:36;;;;;;;;;;;23.40;99.90;;;;;;5069149;28;19913;-67
2022/07/28 08:21:02;;;;;;;;;;;23.50;99.90;;;;;;5074516;28;20352;-67
2022/07/28 08:23:27;;;;;;;;;;;23.70;99.90;;;;;;5069495;28;19947;-66
2022/07/28 08:25:53;;;;;;;;;;;23.80;99.90;;;;;;5069282;28;19917;-67
2022/07/28 08:28:19;;;;;;;;;;;24.00;99.90;;;;;;5067640;28;19912;-67
2022/07/28 08:30:44;;;;;;;;;;;24.10;99.90;;;;;;5069517;28;19913;-67
2022/07/28 08:33:09;;;;;;;;;;;24.30;99.90;;;;;;5069079;28;20313;-67
2022/07/28 08:35:35;;;;;;;;;;;24.50;99.90;;;;;;5069437;28;19913;-66
2022/07/28 08:38:04;;;;;;;;;;;24.70;99.90;;;;;;5067438;28;20007;-67
2022/07/28 08:40:31;;;;;;;;;;;24.80;99.90;;;;;;5069482;28;19973;-66
2022/07/28 08:42:56;;;;;;;;;;;24.90;99.90;;;;;;5069019;28;19912;-67
2022/07/28 08:45:23;;;;;;;;;;;25.10;99.90;;;;;;5071684;28;20291;-67
2022/07/28 08:47:49;;;;;;;;;;;25.20;99.90;;;;;;5068800;28;19909;-67
2022/07/28 08:50:18;;;;;;;;;;;25.30;99.90;;;;;;5069038;28;20288;-68
2022/07/28 08:52:46;;;;;;;;;;;25.50;99.90;;;;;;5068694;28;20014;-66
2022/07/28 08:55:13;;;;;;;;;;;25.40;99.90;;;;;;5078269;28;19954;-67
2022/07/28 08:57:40;;;;;;;;;;;25.60;99.90;;;;;;5077587;28;19909;-67
2022/07/28 09:00:05;;;;;;;;;;;25.70;99.90;;;;;;5079067;28;19955;-66
2022/07/28 09:02:32;;;;;;;;;;;25.80;99.90;;;;;;5082669;28;20336;-67
2022/07/28 09:04:58;;;;;;;;;;;26.00;99.90;;;;;;5080602;28;19921;-68
2022/07/28 09:07:24;;;;;;;;;;;26.20;99.50;;;;;;5080921;28;20368;-67
2022/07/28 09:09:49;;;;;;;;;;;26.20;99.10;;;;;;5088729;28;20027;-67
2022/07/28 09:12:15;;;;;;;;;;;26.20;98.90;;;;;;5093520;28;19943;-68
2022/07/28 09:14:41;;;;;;;;;;;26.30;99.10;;;;;;5093505;28;20011;-68
2022/07/28 09:17:06;;;;;;;;;;;26.40;98.60;;;;;;5092939;28;19965;-67
2022/07/28 09:19:32;;;;;;;;;;;26.50;98.10;;;;;;5093089;28;19923;-68
2022/07/28 09:21:58;;;;;;;;;;;26.40;98.00;;;;;;5093304;28;19915;-67
2022/07/28 09:24:37;;;;;;;;;;;26.40;97.30;;;;;;5091551;28;19947;-66
2022/07/28 09:27:05;;;;;;;;;;;26.50;97.30;;;;;;5089280;28;19955;-77
2022/07/28 09:29:31;;;;;;;;;;;26.60;97.30;;;;;;5092227;28;19930;-77
2022/07/28 09:31:56;;;;;;;;;;;26.60;97.00;;;;;;5093294;28;19912;-76
2022/07/28 09:34:22;;;;;;;;;;;26.60;96.90;;;;;;5093600;28;19920;-78
2022/07/28 09:36:48;;;;;;;;;;;26.70;96.70;;;;;;5093164;28;20356;-77
2022/07/28 09:39:33;;;;;;;;;;;26.80;95.80;;;;;;5092733;28;20002;-77
2022/07/28 09:41:59;;;;;;;;;;;26.90;95.70;;;;;;5091264;28;19958;-77
2022/07/28 09:44:26;;;;;;;;;;;26.90;95.50;;;;;;5091464;28;19920;-77
2022/07/28 09:46:52;;;;;;;;;;;26.90;94.90;;;;;;5091528;28;19916;-77
2022/07/28 09:49:17;;;;;;;;;;;26.60;95.20;;;;;;5091499;28;19920;-76
2022/07/28 09:51:57;;;;;;;;;;;26.50;95.80;;;;;;5092742;28;19915;-75
2022/07/28 09:54:23;;;;;;;;;;;26.50;95.10;;;;;;5092608;28;19982;-75
2022/07/28 09:56:48;;;;;;;;;;;26.60;94.50;;;;;;5092503;28;20373;-75
2022/07/28 09:59:14;;;;;;;;;;;26.80;94.50;;;;;;5091116;28;19931;-75
2022/07/28 10:01:49;;;;;;;;;;;27.00;93.60;;;;;;5091702;28;19908;-76
2022/07/28 10:04:15;;;;;;;;;;;27.20;93.90;;;;;;5092537;28;19924;-77
2022/07/28 10:06:41;;;;;;;;;;;27.30;93.70;;;;;;5090979;28;19915;-76
2022/07/28 10:09:06;;;;;;;;;;;27.30;93.40;;;;;;5092295;28;20009;-76
2022/07/28 10:11:32;;;;;;;;;;;27.40;93.20;;;;;;5091492;28;19908;-76
2022/07/28 10:14:02;;;;;;;;;;;27.60;92.60;;;;;;5090632;28;20231;-67
2022/07/28 10:16:34;;;;;;;;;;;27.70;92.80;;;;;;5091814;28;19912;-68
2022/07/28 10:19:01;;;;;;;;;;;27.70;91.60;;;;;;5091947;28;20260;-68
2022/07/28 10:21:29;;;;;;;;;;;27.90;91.30;;;;;;5091548;28;19915;-66
2022/07/28 10:23:57;;;;;;;;;;;28.00;90.70;;;;;;5091793;28;20366;-67
2022/07/28 10:26:36;;;;;;;;;;;28.10;90.70;;;;;;5091795;28;19908;-66
2022/07/28 10:29:03;;;;;;;;;;;28.10;90.40;;;;;;5091800;28;19965;-67
2022/07/28 10:31:32;;;;;;;;;;;28.20;90.30;;;;;;5091980;28;20327;-68
2022/07/28 10:33:59;;;;;;;;;;;28.40;90.50;;;;;;5091603;28;20259;-68
2022/07/28 10:36:25;;;;;;;;;;;28.80;89.00;;;;;;5091581;28;20022;-68
2022/07/28 10:38:53;;;;;;;;;;;29.00;88.80;;;;;;5091385;28;19927;-68
2022/07/28 10:41:20;;;;;;;;;;;28.90;87.30;;;;;;5091849;28;20360;-67
2022/07/28 10:43:47;;;;;;;;;;;28.90;87.30;;;;;;5091232;28;19934;-68
2022/07/28 10:46:12;;;;;;;;;;;29.00;86.60;;;;;;5091472;28;19916;-67
2022/07/28 10:48:38;;;;;;;;;;;29.30;86.20;;;;;;5091340;28;20443;-68
2022/07/28 10:51:04;;;;;;;;;;;29.40;84.80;;;;;;5090147;28;19992;-67
2022/07/28 10:53:44;;;;;;;;;;;29.20;85.60;;;;;;5091424;28;20306;-67
2022/07/28 10:56:12;;;;;;;;;;;29.30;85.60;;;;;;5091124;28;19959;-67
2022/07/28 10:58:48;;;;;;;;;;;29.30;84.30;;;;;;5091157;28;19912;-67
2022/07/28 11:01:33;;;;;;;;;;;29.40;84.40;;;;;;5089841;28;20444;-67
2022/07/28 11:03:59;;;;;;;;;;;29.60;84.10;;;;;;5091072;28;20009;-66
2022/07/28 11:06:27;;;;;;;;;;;30.00;83.20;;;;;;5091179;28;20033;-67
2022/07/28 11:08:57;;;;;;;;;;;30.20;82.30;;;;;;5091027;28;19942;-67
2022/07/28 11:11:41;;;;;;;;;;;30.30;82.60;;;;;;5091159;28;19915;-67
2022/07/28 11:14:21;;;;;;;;;;;30.40;81.10;;;;;;5090934;28;19981;-67
2022/07/28 11:17:07;;;;;;;;;;;30.50;80.30;;;;;;5089792;28;19946;-67
2022/07/28 11:19:44;;;;;;;;;;;30.40;79.70;;;;;;5090841;28;20407;-67
2022/07/28 11:22:13;;;;;;;;;;;30.40;80.10;;;;;;5091020;28;19923;-68
2022/07/28 11:24:56;;;;;;;;;;;30.30;79.90;;;;;;5091065;28;19923;-67
2022/07/28 11:27:40;;;;;;;;;;;30.10;79.50;;;;;;5091079;28;19912;-67
2022/07/28 11:30:10;;;;;;;;;;;30.00;79.10;;;;;;5091810;28;19919;-68
2022/07/28 11:32:53;;;;;;;;;;;30.00;79.70;;;;;;5090887;28;19941;-67
2022/07/28 11:35:19;;;;;;;;;;;30.10;79.20;;;;;;5089569;28;19912;-67
2022/07/28 11:38:06;;;;;;;;;;;30.10;78.50;;;;;;5090512;28;20284;-67
2022/07/28 11:40:34;;;;;;;;;;;30.10;79.20;;;;;;5089156;28;19923;-66
2022/07/28 11:43:18;;;;;;;;;;;30.10;79.00;;;;;;5090889;28;19912;-67
2022/07/28 11:45:44;;;;;;;;;;;30.00;78.70;;;;;;5091011;28;19981;-67
2022/07/28 11:48:13;;;;;;;;;;;29.90;78.90;;;;;;5090739;28;19908;-66
2022/07/28 11:50:39;;;;;;;;;;;30.00;78.70;;;;;;5090681;28;19946;-67
2022/07/28 11:53:05;;;;;;;;;;;29.90;79.40;;;;;;5090637;28;19956;-66
2022/07/28 11:55:32;;;;;;;;;;;29.70;78.80;;;;;;5090193;28;20494;-67
2022/07/28 11:58:01;;;;;;;;;;;29.60;79.30;;;;;;5090224;28;19916;-68
2022/07/28 12:00:27;;;;;;;;;;;29.70;79.30;;;;;;5090062;28;19916;-67
2022/07/28 12:02:53;;;;;;;;;;;29.80;79.50;;;;;;5090562;28;19938;-65
2022/07/28 12:05:19;;;;;;;;;;;29.90;78.60;;;;;;5090490;28;19924;-66
2022/07/28 12:07:49;;;;;;;;;;;29.60;79.10;;;;;;5090318;28;20390;-66
2022/07/28 12:10:26;;;;;;;;;;;29.60;80.50;;;;;;5090818;28;19956;-67
2022/07/28 12:12:52;;;;;;;;;;;29.50;79.30;;;;;;5090994;28;20364;-68
2022/07/28 12:15:19;;;;;;;;;;;29.50;79.50;;;;;;5091349;28;19962;-67
2022/07/28 12:17:45;;;;;;;;;;;29.50;79.80;;;;;;5091053;28;19935;-66
2022/07/28 12:20:12;;;;;;;;;;;29.40;78.90;;;;;;5091212;28;19920;-67
2022/07/28 12:22:37;;;;;;;;;;;29.30;79.30;;;;;;5090713;28;19912;-67
2022/07/28 12:25:03;;;;;;;;;;;29.10;79.40;;;;;;5090934;28;19920;-67
2022/07/28 12:27:28;;;;;;;;;;;29.00;79.20;;;;;;5090490;28;19912;-67
2022/07/28 12:29:55;;;;;;;;;;;28.90;80.00;;;;;;5089851;28;20364;-68
2022/07/28 12:32:28;;;;;;;;;;;28.80;80.80;;;;;;5089814;28;19912;-66
2022/07/28 12:34:53;;;;;;;;;;;28.80;79.90;;;;;;5090022;28;19964;-68
2022/07/28 12:37:21;;;;;;;;;;;28.70;80.30;;;;;;5090011;28;19908;-67
2022/07/28 12:39:49;;;;;;;;;;;28.50;79.80;;;;;;5090023;28;19924;-67
2022/07/28 12:42:14;;;;;;;;;;;28.30;80.40;;;;;;5088889;28;19913;-66
2022/07/28 12:44:41;;;;;;;;;;;28.20;80.40;;;;;;5091869;28;20267;-68
2022/07/28 12:47:08;;;;;;;;;;;28.00;80.40;;;;;;5093768;28;20348;-67
2022/07/28 12:49:34;;;;;;;;;;;28.00;80.20;;;;;;5093776;28;19916;-67
2022/07/28 12:52:18;;;;;;;;;;;28.00;80.50;;;;;;5093619;28;19912;-67
2022/07/28 12:54:44;;;;;;;;;;;28.00;80.90;;;;;;5093768;28;20012;-67
2022/07/28 12:57:10;;;;;;;;;;;27.90;80.20;;;;;;5093720;28;20002;-68
2022/07/28 14:55:11;;;;;;;3.78;1.48;;;25.50;81.20;;;;;;5117405;27;20397;-76
2022/07/28 14:57:37;;;;;;;4.35;1.50;;;25.40;82.20;;;;;;5108230;28;20024;-76
2022/07/28 15:00:09;;;;;;;3.40;1.67;;;25.40;82.70;;;;;;5108240;28;20443;-76
2022/07/28 15:02:34;;;;;;;3.47;1.80;;;25.40;82.80;;;;;;5106839;28;20024;-77
2022/07/28 15:05:00;;;;;;;2.90;1.40;;;25.30;82.80;;;;;;5108279;28;20024;-77
2022/07/28 15:07:26;;;;;;;3.93;1.67;;;25.30;82.60;;;;;;5106959;28;20046;-77
2022/07/28 15:09:51;;;;;;;4.37;1.60;;;25.30;82.60;;;;;;5107760;28;20043;-77
2022/07/28 15:12:17;;;;;;;2.87;1.50;;;25.30;83.00;;;;;;5107975;28;20016;-77
2022/07/28 15:14:43;;;;;;;5.23;1.93;;;25.20;83.00;;;;;;5106920;28;20105;-76
2022/07/28 15:17:08;;;;;;;3.20;1.83;;;25.20;83.00;;;;;;5108079;28;20037;-77
2022/07/28 15:19:34;;;;;;;2.70;1.67;;;25.20;83.10;;;;;;5107960;28;20089;-77
2022/07/28 15:22:00;;;;;;;3.38;2.00;;;25.20;83.90;;;;;;5106108;28;20020;-77
2022/07/28 15:24:29;;;;;;;3.20;1.93;;;25.10;83.70;;;;;;5106423;28;20074;-77
2022/07/28 15:26:56;;;;;;;2.60;1.60;;;25.10;83.80;;;;;;5106019;28;20115;-77
2022/07/28 15:29:22;;;;;;;5.28;1.90;;;25.00;84.10;;;;;;5106370;28;20515;-77
2022/07/28 15:31:48;;;;;;;3.83;2.10;;;25.00;83.70;;;;;;5107808;28;20394;-77
2022/07/28 15:34:14;;;;;;;6.40;2.00;;;24.90;84.10;;;;;;5105979;28;20040;-76
2022/07/28 15:36:40;;;;;;;5.30;1.90;;;24.80;84.80;;;;;;5107268;28;20150;-76
2022/07/28 15:39:07;;;;;;;5.60;2.50;;;24.80;84.90;;;;;;5107871;28;20042;-76
2022/07/28 15:41:34;;;;;;;4.75;1.60;;;24.80;84.60;;;;;;5106266;28;20263;-77
2022/07/28 15:43:59;;;;;;;3.33;1.70;;;24.80;84.90;;;;;;5099900;28;20097;-77
2022/07/28 15:46:25;;;;;;;1.85;1.50;;;24.80;85.00;;;;;;5085768;28;20038;-77
2022/07/28 15:48:53;;;;;;;2.90;1.53;;;24.70;85.00;;;;;;5087424;28;20112;-76
2022/07/28 15:51:19;;;;;;;5.15;2.03;;;24.70;85.20;;;;;;5085542;28;20032;-76
2022/07/28 15:53:51;;;;;;;5.97;1.60;;;24.70;85.00;;;;;;5094161;28;20074;-77
2022/07/28 15:56:16;;;;;;;3.42;1.50;;;24.70;85.00;;;;;;5092904;28;20028;-76
2022/07/28 15:58:42;;;;;;;3.90;1.88;;;24.70;84.90;;;;;;5093683;28;20042;-76
2022/07/28 16:01:08;;;;;;;3.57;1.83;;;24.60;85.10;;;;;;5093368;28;20028;-77
2022/07/28 16:03:33;;;;;;;4.20;2.07;;;24.60;85.70;;;;;;5091947;28;20043;-77
2022/07/28 16:05:59;;;;;;;3.73;1.80;;;24.60;86.50;;;;;;5093267;28;20036;-75
2022/07/28 16:08:25;;;;;;;2.97;1.67;;;24.50;85.60;;;;;;5093249;28;20063;-76
2022/07/28 16:10:51;;;;;;;3.25;1.70;;;24.50;85.30;;;;;;5093039;28;20028;-76